createdAt,value
2022-10-07T00:01:26.603Z,17.14
2022-10-07T00:03:54.331Z,17.32
2022-10-07T00:06:23.144Z,17.31
2022-10-07T00:08:53.439Z,17.66
2022-10-07T00:11:29.562Z,17.82
2022-10-07T00:14:03.634Z,17.82
2022-10-07T00:16:39.676Z,17.92
2022-10-07T00:19:13.280Z,17.88
2022-10-07T00:21:41.008Z,17.85
2022-10-07T00:24:10.316Z,17.60
2022-10-07T00:26:40.067Z,17.60
2022-10-07T00:29:07.743Z,17.84
2022-10-07T00:31:37.301Z,17.69
2022-10-07T00:34:05.647Z,17.64
2022-10-07T00:36:37.402Z,17.75
2022-10-07T00:39:15.059Z,17.78
2022-10-07T00:41:52.640Z,17.50
2022-10-07T00:44:46.277Z,17.74
2022-10-07T00:47:30.523Z,17.54
2022-10-07T00:50:11.543Z,17.44
2022-10-07T00:52:51.832Z,17.40
2022-10-07T00:55:27.025Z,17.18
2022-10-07T00:58:01.361Z,17.05
2022-10-07T01:00:28.893Z,17.04
2022-10-07T01:02:56.231Z,16.94
2022-10-07T01:05:23.551Z,16.92
2022-10-07T01:07:53.281Z,17.26
2022-10-07T01:10:25.294Z,17.31
2022-10-07T01:13:26.598Z,17.12
2022-10-07T01:16:37.922Z,17.09
2022-10-07T01:20:00.551Z,16.87
2022-10-07T01:23:10.589Z,16.84
2022-10-07T01:26:15.808Z,16.99
2022-10-07T01:29:02.302Z,17.12
2022-10-07T01:31:42.773Z,17.02
2022-10-07T01:34:13.970Z,17.01
2022-10-07T01:36:51.835Z,16.91
2022-10-07T01:39:30.656Z,16.88
2022-10-07T01:41:59.106Z,16.70
2022-10-07T01:44:30.324Z,16.73
2022-10-07T01:46:59.159Z,16.82
2022-10-07T01:49:26.832Z,16.74
2022-10-07T01:52:51.732Z,16.66
2022-10-07T01:55:46.701Z,16.65
2022-10-07T01:58:46.510Z,16.60
2022-10-07T02:01:47.068Z,16.63
2022-10-07T02:04:44.720Z,16.68
2022-10-07T02:08:12.410Z,16.63
2022-10-07T02:11:31.460Z,16.64
2022-10-07T02:14:23.114Z,16.69
2022-10-07T02:17:10.640Z,16.63
2022-10-07T02:19:48.871Z,16.67
2022-10-07T02:22:19.383Z,16.81
2022-10-07T02:24:49.341Z,16.51
2022-10-07T02:27:28.913Z,16.72
2022-10-07T02:30:05.606Z,16.39
2022-10-07T02:32:36.971Z,16.50
2022-10-07T02:35:23.957Z,16.54
2022-10-07T02:37:56.262Z,16.53
2022-10-07T02:40:32.248Z,16.51
2022-10-07T02:43:20.157Z,16.68
2022-10-07T02:46:15.780Z,16.72
2022-10-07T02:49:09.990Z,16.84
2022-10-07T02:52:06.540Z,16.82
2022-10-07T02:55:03.817Z,16.77
2022-10-07T02:57:46.491Z,16.89
2022-10-07T03:00:17.859Z,17.07
2022-10-07T03:03:02.506Z,16.78
2022-10-07T03:05:31.687Z,16.69
2022-10-07T03:08:11.230Z,16.71
2022-10-07T03:10:38.981Z,16.80
2022-10-07T03:13:06.325Z,16.93
2022-10-07T03:15:41.921Z,17.04
2022-10-07T03:18:26.256Z,16.98
2022-10-07T03:20:57.098Z,16.97
2022-10-07T03:23:25.995Z,16.79
2022-10-07T03:25:58.255Z,16.85
2022-10-07T03:28:31.605Z,16.69
2022-10-07T03:31:10.289Z,16.82
2022-10-07T03:33:38.312Z,16.86
2022-10-07T03:36:08.392Z,16.92
2022-10-07T03:38:36.181Z,16.88
2022-10-07T03:41:04.606Z,16.93
2022-10-07T03:43:33.680Z,16.97
2022-10-07T03:46:02.339Z,16.96
2022-10-07T03:48:31.381Z,17.12
2022-10-07T03:50:59.268Z,16.98
2022-10-07T03:53:29.550Z,16.97
2022-10-07T03:55:57.842Z,17.08
2022-10-07T03:58:25.785Z,17.01
2022-10-07T04:01:03.477Z,17.21
2022-10-07T04:03:33.935Z,17.01
2022-10-07T04:06:02.456Z,16.94
2022-10-07T04:08:32.840Z,17.06
2022-10-07T04:11:02.149Z,17.00
2022-10-07T04:13:29.561Z,17.16
2022-10-07T04:15:56.935Z,17.05
2022-10-07T04:18:25.094Z,17.12
2022-10-07T04:20:52.468Z,17.15
2022-10-07T04:23:19.751Z,16.92
2022-10-07T04:25:47.769Z,17.06
2022-10-07T04:28:25.988Z,17.11
2022-10-07T04:30:54.366Z,17.16
2022-10-07T04:33:24.556Z,17.11
2022-10-07T04:35:52.082Z,17.18
2022-10-07T04:38:19.636Z,17.14
2022-10-07T04:40:52.681Z,17.20
2022-10-07T04:43:23.484Z,17.13
2022-10-07T04:46:06.587Z,17.17
2022-10-07T04:48:34.894Z,17.20
2022-10-07T04:51:09.048Z,17.28
2022-10-07T04:53:38.820Z,17.25
2022-10-07T04:56:06.946Z,17.23
2022-10-07T04:58:34.363Z,17.19
2022-10-07T05:01:09.862Z,17.14
2022-10-07T05:03:39.909Z,17.22
2022-10-07T05:06:08.658Z,17.19
2022-10-07T05:08:36.579Z,17.13
2022-10-07T05:11:04.635Z,17.06
2022-10-07T05:13:32.457Z,17.07
2022-10-07T05:16:03.053Z,17.05
2022-10-07T05:18:31.242Z,17.09
2022-10-07T05:20:58.609Z,17.10
2022-10-07T05:23:28.664Z,17.06
2022-10-07T05:26:09.520Z,17.08
2022-10-07T05:28:38.142Z,17.04
2022-10-07T05:31:14.652Z,16.99
2022-10-07T05:33:43.997Z,16.91
2022-10-07T05:36:12.176Z,17.01
2022-10-07T05:38:39.596Z,17.13
2022-10-07T05:41:12.154Z,17.08
2022-10-07T05:43:43.087Z,17.00
2022-10-07T05:46:18.221Z,17.15
2022-10-07T05:48:53.283Z,17.21
2022-10-07T05:51:24.317Z,17.15
2022-10-07T05:53:58.212Z,17.04
2022-10-07T05:56:25.711Z,17.10
2022-10-07T05:58:53.744Z,17.16
2022-10-07T06:01:24.524Z,17.19
2022-10-07T06:03:59.933Z,16.98
2022-10-07T06:06:27.448Z,16.92
2022-10-07T06:08:54.776Z,16.75
2022-10-07T06:11:40.833Z,16.82
2022-10-07T06:14:08.152Z,16.87
2022-10-07T06:16:35.529Z,16.76
2022-10-07T06:19:02.936Z,16.71
2022-10-07T06:21:30.188Z,16.72
2022-10-07T06:24:00.788Z,16.78
2022-10-07T06:26:28.332Z,16.83
2022-10-07T06:28:55.588Z,16.93
2022-10-07T06:31:25.156Z,16.95
2022-10-07T06:33:54.081Z,16.94
2022-10-07T06:36:21.660Z,16.78
2022-10-07T06:38:52.923Z,16.96
2022-10-07T06:41:23.425Z,17.22
2022-10-07T06:43:54.475Z,17.17
2022-10-07T06:46:24.389Z,17.29
2022-10-07T06:48:51.738Z,17.25
2022-10-07T06:51:22.021Z,17.31
2022-10-07T06:53:59.527Z,17.16
2022-10-07T06:56:26.893Z,17.33
2022-10-07T06:58:54.192Z,17.47
2022-10-07T07:01:21.666Z,17.50
2022-10-07T07:03:48.970Z,17.49
2022-10-07T07:06:17.843Z,17.46
2022-10-07T07:08:45.971Z,17.51
2022-10-07T07:11:32.943Z,17.59
2022-10-07T07:14:00.744Z,17.57
2022-10-07T07:16:28.785Z,17.45
2022-10-07T07:19:04.088Z,17.57
2022-10-07T07:21:33.561Z,17.59
2022-10-07T07:24:02.334Z,17.53
2022-10-07T07:26:31.376Z,17.53
2022-10-07T07:29:03.705Z,17.54
2022-10-07T07:31:35.456Z,17.85
2022-10-07T07:34:13.534Z,17.85
2022-10-07T07:36:51.722Z,17.57
2022-10-07T07:39:20.881Z,17.94
2022-10-07T07:41:48.493Z,18.19
2022-10-07T07:44:19.118Z,18.07
2022-10-07T07:46:51.341Z,18.13
2022-10-07T07:49:21.602Z,18.28
2022-10-07T07:51:50.193Z,18.35
2022-10-07T07:54:17.654Z,18.38
2022-10-07T07:56:46.157Z,18.38
2022-10-07T07:59:13.457Z,18.52
2022-10-07T08:01:41.046Z,18.26
2022-10-07T08:04:10.776Z,18.59
2022-10-07T08:06:40.374Z,18.66
2022-10-07T08:09:08.229Z,18.57
2022-10-07T08:11:35.604Z,18.86
2022-10-07T08:14:03.352Z,18.72
2022-10-07T08:16:30.920Z,18.85
2022-10-07T08:18:58.737Z,18.95
2022-10-07T08:21:35.297Z,19.03
2022-10-07T08:24:07.329Z,19.11
2022-10-07T08:26:38.009Z,19.09
2022-10-07T08:29:05.540Z,19.20
2022-10-07T08:31:34.091Z,19.41
2022-10-07T08:34:04.905Z,19.32
2022-10-07T08:36:33.797Z,19.53
2022-10-07T08:39:04.593Z,19.55
2022-10-07T08:41:36.421Z,19.71
2022-10-07T08:44:32.392Z,19.82
2022-10-07T08:47:38.492Z,19.98
2022-10-07T08:50:57.864Z,20.07
2022-10-07T08:53:36.739Z,20.33
2022-10-07T08:56:20.350Z,20.45
2022-10-07T08:59:31.229Z,20.38
2022-10-07T09:03:07.421Z,20.77
2022-10-07T09:05:44.296Z,20.87
2022-10-07T09:08:40.272Z,21.14
2022-10-07T09:11:16.128Z,21.16
2022-10-07T09:13:58.139Z,21.15
2022-10-07T09:16:44.790Z,21.49
2022-10-07T09:19:38.153Z,21.57
2022-10-07T09:22:24.404Z,21.84
2022-10-07T09:25:13.361Z,21.78
2022-10-07T09:27:41.063Z,21.73
2022-10-07T09:30:14.136Z,22.01
2022-10-07T09:32:50.333Z,22.04
2022-10-07T09:35:27.812Z,22.49
2022-10-07T09:38:03.788Z,22.53
2022-10-07T09:41:07.133Z,22.66
2022-10-07T09:43:36.550Z,22.62
2022-10-07T09:46:03.959Z,22.83
2022-10-07T09:48:34.709Z,23.07
2022-10-07T09:51:25.494Z,23.08
2022-10-07T09:54:19.665Z,23.36
2022-10-07T09:56:54.245Z,23.43
2022-10-07T09:59:31.805Z,23.33
2022-10-07T10:02:23.031Z,23.33
2022-10-07T10:04:59.813Z,23.62
2022-10-07T10:07:37.431Z,23.91
2022-10-07T10:10:23.969Z,24.06
2022-10-07T10:12:55.903Z,24.23
2022-10-07T10:15:44.931Z,23.92
2022-10-07T10:18:52.821Z,24.13
2022-10-07T10:21:35.863Z,24.56
2022-10-07T10:24:11.706Z,24.72
2022-10-07T10:27:21.685Z,24.71
2022-10-07T10:30:10.740Z,25.29
2022-10-07T10:33:30.336Z,25.36
2022-10-07T10:36:21.969Z,25.67
2022-10-07T10:40:19.106Z,25.50
2022-10-07T10:43:35.396Z,26.00
2022-10-07T10:47:13.057Z,25.90
2022-10-07T10:50:26.556Z,26.39
2022-10-07T10:53:49.163Z,26.10
2022-10-07T10:57:23.891Z,26.70
2022-10-07T11:00:20.889Z,26.11
2022-10-07T11:03:52.085Z,26.11
2022-10-07T11:06:20.232Z,26.66
2022-10-07T11:08:50.909Z,27.05
2022-10-07T11:11:23.136Z,27.03
2022-10-07T11:14:19.461Z,27.19
2022-10-07T11:17:03.317Z,27.49
2022-10-07T11:20:08.416Z,27.64
2022-10-07T11:22:50.903Z,27.37
2022-10-07T11:25:38.418Z,26.57
2022-10-07T11:28:21.618Z,26.16
2022-10-07T11:31:35.822Z,26.21
2022-10-07T11:34:21.723Z,25.51
2022-10-07T11:37:10.195Z,26.32
2022-10-07T11:39:39.189Z,26.55
2022-10-07T11:42:27.705Z,26.98
2022-10-07T11:45:08.550Z,26.70
2022-10-07T11:47:49.349Z,26.70
2022-10-07T11:50:36.878Z,27.09
2022-10-07T11:53:19.651Z,26.57
2022-10-07T11:56:13.192Z,27.17
2022-10-07T11:58:40.728Z,27.56
2022-10-07T12:01:26.041Z,27.50
2022-10-07T12:04:17.359Z,27.60
2022-10-07T12:07:32.967Z,27.74
2022-10-07T12:10:05.555Z,28.10
2022-10-07T12:12:44.995Z,28.08
2022-10-07T12:15:34.654Z,28.18
2022-10-07T12:18:05.545Z,28.02
2022-10-07T12:20:50.734Z,28.02
2022-10-07T12:23:20.870Z,28.26
2022-10-07T12:25:53.689Z,28.05
2022-10-07T12:28:47.478Z,28.14
2022-10-07T12:31:19.159Z,27.91
2022-10-07T12:33:46.447Z,28.05
2022-10-07T12:36:22.138Z,28.24
2022-10-07T12:38:59.144Z,28.30
2022-10-07T12:41:40.786Z,28.17
2022-10-07T12:44:40.892Z,28.18
2022-10-07T12:47:13.896Z,28.53
2022-10-07T12:50:10.745Z,28.99
2022-10-07T12:52:55.322Z,28.61
2022-10-07T12:55:39.189Z,28.80
2022-10-07T12:59:05.038Z,28.88
2022-10-07T13:03:03.348Z,28.83
2022-10-07T13:06:41.409Z,28.43
2022-10-07T13:09:17.389Z,29.03
2022-10-07T13:13:00.688Z,28.72
2022-10-07T13:15:58.080Z,28.42
2022-10-07T13:19:03.544Z,28.72
2022-10-07T13:21:46.206Z,28.79
2022-10-07T13:24:22.466Z,29.37
2022-10-07T13:26:50.104Z,28.76
2022-10-07T13:29:36.568Z,29.10
2022-10-07T13:32:16.146Z,29.50
2022-10-07T13:34:47.159Z,28.98
2022-10-07T13:37:35.753Z,28.73
2022-10-07T13:40:35.769Z,28.69
2022-10-07T13:43:08.881Z,28.66
2022-10-07T13:45:45.982Z,28.31
2022-10-07T13:48:23.291Z,29.00
2022-10-07T13:50:55.658Z,28.32
2022-10-07T13:53:36.912Z,28.00
2022-10-07T13:56:36.073Z,28.34
2022-10-07T13:59:06.634Z,28.71
2022-10-07T14:01:40.180Z,28.09
2022-10-07T14:04:29.223Z,28.08
2022-10-07T14:07:11.381Z,27.99
2022-10-07T14:10:01.549Z,27.71
2022-10-07T14:12:42.160Z,27.40
2022-10-07T14:15:31.854Z,27.66
2022-10-07T14:18:10.517Z,27.64
2022-10-07T14:20:45.253Z,27.49
2022-10-07T14:23:34.251Z,27.47
2022-10-07T14:26:11.123Z,27.81
2022-10-07T14:28:41.408Z,27.61
2022-10-07T14:31:29.196Z,27.63
2022-10-07T14:34:38.230Z,27.58
2022-10-07T14:37:26.244Z,27.63
2022-10-07T14:39:56.991Z,27.46
2022-10-07T14:42:32.940Z,27.18
2022-10-07T14:45:08.236Z,27.16
2022-10-07T14:47:36.320Z,27.33
2022-10-07T14:50:03.904Z,27.71
2022-10-07T14:52:49.870Z,27.99
2022-10-07T14:55:27.841Z,27.80
2022-10-07T14:57:55.672Z,27.83
2022-10-07T15:00:29.353Z,27.74
2022-10-07T15:02:56.826Z,27.75
2022-10-07T15:05:26.362Z,27.29
2022-10-07T15:07:53.688Z,27.36
2022-10-07T15:10:26.611Z,27.16
2022-10-07T15:12:55.986Z,27.31
2022-10-07T15:15:23.269Z,27.25
2022-10-07T15:17:50.556Z,27.38
2022-10-07T15:20:19.493Z,27.12
2022-10-07T15:22:47.091Z,27.08
2022-10-07T15:25:15.329Z,26.92
2022-10-07T15:27:42.887Z,27.11
2022-10-07T15:30:11.956Z,26.91
2022-10-07T15:32:39.461Z,26.94
2022-10-07T15:35:08.014Z,27.12
2022-10-07T15:37:35.361Z,26.88
2022-10-07T15:40:03.083Z,26.67
2022-10-07T15:42:30.368Z,26.63
2022-10-07T15:44:57.808Z,26.57
2022-10-07T15:47:27.225Z,26.32
2022-10-07T15:49:54.587Z,26.27
2022-10-07T15:52:22.709Z,26.22
2022-10-07T15:54:49.972Z,26.42
2022-10-07T15:57:17.256Z,26.35
2022-10-07T15:59:45.693Z,26.36
2022-10-07T16:02:21.188Z,26.12
2022-10-07T16:04:49.090Z,26.20
2022-10-07T16:07:16.675Z,26.22
2022-10-07T16:09:43.949Z,25.91
2022-10-07T16:12:11.327Z,25.90
2022-10-07T16:14:38.950Z,26.12
2022-10-07T16:17:06.297Z,25.92
2022-10-07T16:19:33.761Z,25.81
2022-10-07T16:22:01.472Z,25.63
2022-10-07T16:24:33.993Z,25.68
2022-10-07T16:27:02.429Z,25.48
2022-10-07T16:29:48.078Z,25.38
2022-10-07T16:32:15.492Z,25.44
2022-10-07T16:34:44.399Z,25.40
2022-10-07T16:37:12.603Z,25.27
2022-10-07T16:39:40.078Z,25.27
2022-10-07T16:42:07.864Z,25.24
2022-10-07T16:44:36.163Z,25.23
2022-10-07T16:47:03.507Z,25.17
2022-10-07T16:49:30.830Z,25.17
2022-10-07T16:51:58.588Z,25.06
2022-10-07T16:54:28.482Z,25.09
2022-10-07T16:56:56.379Z,25.03
2022-10-07T16:59:25.868Z,25.11
2022-10-07T17:01:57.012Z,25.08
2022-10-07T17:04:25.508Z,24.80
2022-10-07T17:06:54.172Z,24.65
2022-10-07T17:09:24.412Z,24.74
2022-10-07T17:11:51.935Z,24.49
2022-10-07T17:14:22.829Z,24.47
2022-10-07T17:16:58.337Z,24.42
2022-10-07T17:19:29.000Z,24.32
2022-10-07T17:22:00.033Z,24.30
2022-10-07T17:24:31.100Z,24.44
2022-10-07T17:27:01.013Z,24.05
2022-10-07T17:29:29.598Z,23.93
2022-10-07T17:31:56.931Z,24.04
2022-10-07T17:34:24.330Z,24.10
2022-10-07T17:36:52.040Z,24.18
2022-10-07T17:39:19.697Z,23.85
2022-10-07T17:41:47.495Z,23.94
2022-10-07T17:44:14.942Z,23.75
2022-10-07T17:46:42.731Z,23.70
2022-10-07T17:49:14.780Z,23.59
2022-10-07T17:51:43.221Z,23.69
2022-10-07T17:54:14.207Z,23.67
2022-10-07T17:56:44.387Z,23.57
2022-10-07T17:59:12.289Z,23.55
2022-10-07T18:01:41.243Z,23.63
2022-10-07T18:04:23.684Z,23.49
2022-10-07T18:06:52.216Z,23.31
2022-10-07T18:09:22.168Z,23.09
2022-10-07T18:12:08.136Z,22.96
2022-10-07T18:14:54.558Z,23.29
2022-10-07T18:17:25.211Z,23.35
2022-10-07T18:19:52.683Z,23.31
2022-10-07T18:22:20.484Z,23.02
2022-10-07T18:24:52.201Z,22.97
2022-10-07T18:27:25.117Z,23.16
2022-10-07T18:29:53.035Z,23.05
2022-10-07T18:34:49.113Z,22.92
2022-10-07T18:37:16.782Z,22.92
2022-10-07T18:39:44.297Z,22.98
2022-10-07T18:42:11.556Z,22.85
2022-10-07T18:44:38.829Z,22.88
2022-10-07T18:47:06.076Z,23.00
2022-10-07T18:49:33.416Z,22.99
2022-10-07T18:52:01.794Z,23.01
2022-10-07T18:54:29.081Z,22.74
2022-10-07T18:56:56.400Z,22.57
2022-10-07T18:59:24.518Z,22.82
2022-10-07T19:01:51.925Z,22.40
2022-10-07T19:04:19.992Z,22.39
2022-10-07T19:06:48.289Z,21.79
2022-10-07T19:09:22.223Z,21.96
2022-10-07T19:11:50.256Z,21.72
2022-10-07T19:14:17.879Z,21.95
2022-10-07T19:16:51.350Z,21.99
2022-10-07T19:19:23.611Z,22.07
2022-10-07T19:21:55.095Z,22.11
2022-10-07T19:24:42.692Z,22.10
2022-10-07T19:27:11.522Z,22.17
2022-10-07T19:29:38.784Z,22.31
2022-10-07T19:32:08.624Z,22.41
2022-10-07T19:34:36.843Z,22.45
2022-10-07T19:37:04.187Z,22.41
2022-10-07T19:39:31.463Z,22.32
2022-10-07T19:41:59.197Z,22.68
2022-10-07T19:44:26.545Z,22.90
2022-10-07T19:46:54.413Z,22.57
2022-10-07T19:49:22.323Z,22.49
2022-10-07T19:51:49.618Z,22.51
2022-10-07T19:54:16.972Z,22.63
2022-10-07T19:56:45.151Z,22.63
2022-10-07T19:59:15.049Z,22.27
2022-10-07T20:01:47.470Z,22.56
2022-10-07T20:04:20.950Z,22.54
2022-10-07T20:06:49.006Z,22.71
2022-10-07T20:09:19.007Z,22.24
2022-10-07T20:11:47.080Z,22.11
2022-10-07T20:14:15.196Z,21.98
2022-10-07T20:16:43.133Z,22.11
2022-10-07T20:19:18.646Z,22.13
2022-10-07T20:21:46.944Z,21.86
2022-10-07T20:24:16.427Z,21.86
2022-10-07T20:26:45.804Z,21.79
2022-10-07T20:29:16.516Z,21.77
2022-10-07T20:31:44.972Z,21.66
2022-10-07T20:34:18.375Z,21.65
2022-10-07T20:36:45.729Z,21.41
2022-10-07T20:39:39.010Z,21.45
2022-10-07T20:42:29.189Z,21.46
2022-10-07T20:44:58.799Z,21.42
2022-10-07T20:47:31.773Z,21.58
2022-10-07T20:50:02.100Z,21.40
2022-10-07T20:52:34.664Z,21.36
2022-10-07T20:55:02.028Z,21.26
2022-10-07T20:57:33.863Z,21.11
2022-10-07T21:00:01.116Z,21.06
2022-10-07T21:02:29.066Z,21.05
2022-10-07T21:04:56.509Z,21.04
2022-10-07T21:07:23.784Z,20.83
2022-10-07T21:09:51.122Z,21.05
2022-10-07T21:12:18.698Z,21.02
2022-10-07T21:14:47.930Z,21.03
2022-10-07T21:17:16.761Z,20.93
2022-10-07T21:19:44.063Z,21.02
2022-10-07T21:22:11.365Z,21.03
2022-10-07T21:24:38.665Z,20.98
2022-10-07T21:27:08.154Z,20.80
2022-10-07T21:29:40.663Z,21.04
2022-10-07T21:32:10.811Z,20.99
2022-10-07T21:34:38.779Z,20.93
2022-10-07T21:37:06.120Z,21.00
2022-10-07T21:39:33.906Z,21.12
2022-10-07T21:42:01.838Z,21.11
2022-10-07T21:44:29.430Z,20.98
2022-10-07T21:46:59.748Z,20.95
2022-10-07T21:49:27.039Z,20.99
2022-10-07T21:51:54.293Z,20.95
2022-10-07T21:54:21.546Z,20.85
2022-10-07T21:56:50.167Z,20.91
2022-10-07T21:59:17.451Z,20.82
2022-10-07T22:01:44.785Z,20.71
2022-10-07T22:04:19.513Z,20.81
2022-10-07T22:07:07.566Z,20.79
2022-10-07T22:09:38.416Z,20.90
2022-10-07T22:12:05.825Z,20.64
2022-10-07T22:14:33.148Z,20.79
2022-10-07T22:17:00.413Z,20.69
2022-10-07T22:19:27.680Z,20.91
2022-10-07T22:21:55.245Z,20.83
2022-10-07T22:24:24.004Z,20.76
2022-10-07T22:26:51.504Z,20.69
2022-10-07T22:29:21.665Z,20.57
2022-10-07T22:31:50.471Z,20.62
2022-10-07T22:34:36.487Z,20.65
2022-10-07T22:37:05.132Z,20.65
2022-10-07T22:39:32.402Z,20.66
2022-10-07T22:42:01.152Z,20.36
2022-10-07T22:44:28.605Z,20.48
2022-10-07T22:46:59.305Z,20.40
2022-10-07T22:49:30.048Z,20.41
2022-10-07T22:52:00.193Z,20.33
2022-10-07T22:54:28.466Z,20.32
2022-10-07T22:56:56.052Z,20.33
2022-10-07T22:59:23.317Z,20.41
2022-10-07T23:01:50.577Z,20.33
2022-10-07T23:04:20.199Z,20.27
2022-10-07T23:06:47.568Z,20.20
2022-10-07T23:09:14.904Z,20.24
2022-10-07T23:11:42.164Z,20.05
2022-10-07T23:14:09.680Z,20.02
2022-10-07T23:16:38.584Z,20.00
2022-10-07T23:19:05.870Z,19.95
2022-10-07T23:21:36.979Z,20.04
2022-10-07T23:24:07.813Z,20.01
2022-10-07T23:26:37.172Z,19.93
2022-10-07T23:29:04.884Z,20.03
2022-10-07T23:31:33.438Z,19.87
2022-10-07T23:34:04.390Z,19.87
2022-10-07T23:36:33.271Z,20.03
2022-10-07T23:39:01.661Z,19.93
2022-10-07T23:41:33.991Z,19.83
2022-10-07T23:44:03.417Z,19.90
2022-10-07T23:46:35.067Z,19.75
2022-10-07T23:49:04.096Z,19.86
2022-10-07T23:51:32.494Z,19.80
2022-10-07T23:54:03.651Z,19.83
2022-10-07T23:56:32.201Z,19.83
2022-10-07T23:59:01.625Z,19.78
